sensor_id;sensor_type;location;lat;lon;timestamp;temperature;humidity
4374;DHT22;2201;51.100;6.814;2022-07-29T00:01:31;20.60;81.50
4374;DHT22;2201;51.100;6.814;2022-07-29T00:03:58;20.50;81.10
4374;DHT22;2201;51.100;6.814;2022-07-29T00:06:25;20.50;80.40
4374;DHT22;2201;51.100;6.814;2022-07-29T00:08:52;20.50;80.60
4374;DHT22;2201;51.100;6.814;2022-07-29T00:11:19;20.50;80.30
4374;DHT22;2201;51.100;6.814;2022-07-29T00:13:47;20.50;80.30
4374;DHT22;2201;51.100;6.814;2022-07-29T00:16:14;20.50;80.40
4374;DHT22;2201;51.100;6.814;2022-07-29T00:18:41;20.50;80.30
4374;DHT22;2201;51.100;6.814;2022-07-29T00:21:08;20.50;80.50
4374;DHT22;2201;51.100;6.814;2022-07-29T00:23:35;20.50;80.40
4374;DHT22;2201;51.100;6.814;2022-07-29T00:26:02;20.50;80.70
4374;DHT22;2201;51.100;6.814;2022-07-29T00:28:29;20.50;81.30
4374;DHT22;2201;51.100;6.814;2022-07-29T00:30:58;20.50;81.00
4374;DHT22;2201;51.100;6.814;2022-07-29T00:33:34;20.50;81.80
4374;DHT22;2201;51.100;6.814;2022-07-29T00:36:02;20.50;82.60
4374;DHT22;2201;51.100;6.814;2022-07-29T00:38:29;20.40;82.40
4374;DHT22;2201;51.100;6.814;2022-07-29T00:40:56;20.40;81.30
4374;DHT22;2201;51.100;6.814;2022-07-29T00:43:22;20.40;81.50
4374;DHT22;2201;51.100;6.814;2022-07-29T00:45:49;20.40;81.70
4374;DHT22;2201;51.100;6.814;2022-07-29T00:48:18;20.40;82.00
4374;DHT22;2201;51.100;6.814;2022-07-29T00:50:45;20.40;82.00
4374;DHT22;2201;51.100;6.814;2022-07-29T00:53:12;20.40;82.40
4374;DHT22;2201;51.100;6.814;2022-07-29T00:55:39;20.40;81.00
4374;DHT22;2201;51.100;6.814;2022-07-29T00:58:06;20.30;81.70
4374;DHT22;2201;51.100;6.814;2022-07-29T01:00:33;20.30;81.50
4374;DHT22;2201;51.100;6.814;2022-07-29T01:03:00;20.30;81.60
4374;DHT22;2201;51.100;6.814;2022-07-29T01:05:29;20.30;83.00
4374;DHT22;2201;51.100;6.814;2022-07-29T01:07:57;20.20;81.90
4374;DHT22;2201;51.100;6.814;2022-07-29T01:10:24;20.30;82.20
4374;DHT22;2201;51.100;6.814;2022-07-29T01:12:52;20.20;81.30
4374;DHT22;2201;51.100;6.814;2022-07-29T01:15:21;20.20;81.20
4374;DHT22;2201;51.100;6.814;2022-07-29T01:17:54;20.20;81.60
4374;DHT22;2201;51.100;6.814;2022-07-29T01:20:28;20.20;81.20
4374;DHT22;2201;51.100;6.814;2022-07-29T01:23:30;20.20;81.00
4374;DHT22;2201;51.100;6.814;2022-07-29T01:26:22;20.20;81.50
4374;DHT22;2201;51.100;6.814;2022-07-29T01:29:07;20.20;81.30
4374;DHT22;2201;51.100;6.814;2022-07-29T01:31:43;20.20;81.70
4374;DHT22;2201;51.100;6.814;2022-07-29T01:34:13;20.20;81.50
4374;DHT22;2201;51.100;6.814;2022-07-29T01:36:45;20.20;81.60
4374;DHT22;2201;51.100;6.814;2022-07-29T01:39:18;20.20;81.80
4374;DHT22;2201;51.100;6.814;2022-07-29T01:41:50;20.20;82.30
4374;DHT22;2201;51.100;6.814;2022-07-29T01:44:26;20.20;82.40
4374;DHT22;2201;51.100;6.814;2022-07-29T01:47:00;20.20;82.10
4374;DHT22;2201;51.100;6.814;2022-07-29T01:49:31;20.20;82.70
4374;DHT22;2201;51.100;6.814;2022-07-29T01:52:03;20.20;82.80
4374;DHT22;2201;51.100;6.814;2022-07-29T01:54:34;20.20;83.20
4374;DHT22;2201;51.100;6.814;2022-07-29T01:57:03;20.10;82.50
4374;DHT22;2201;51.100;6.814;2022-07-29T01:59:34;20.10;82.80
4374;DHT22;2201;51.100;6.814;2022-07-29T02:02:02;20.10;83.50
4374;DHT22;2201;51.100;6.814;2022-07-29T02:04:31;20.10;83.30
4374;DHT22;2201;51.100;6.814;2022-07-29T02:07:05;20.10;83.10
4374;DHT22;2201;51.100;6.814;2022-07-29T02:09:35;20.10;83.30
4374;DHT22;2201;51.100;6.814;2022-07-29T02:12:03;20.10;83.40
4374;DHT22;2201;51.100;6.814;2022-07-29T02:14:35;20.00;83.30
4374;DHT22;2201;51.100;6.814;2022-07-29T02:17:03;20.00;82.50
4374;DHT22;2201;51.100;6.814;2022-07-29T02:19:32;20.00;83.30
4374;DHT22;2201;51.100;6.814;2022-07-29T02:22:00;20.00;82.30
4374;DHT22;2201;51.100;6.814;2022-07-29T02:24:28;20.00;83.10
4374;DHT22;2201;51.100;6.814;2022-07-29T02:26:57;20.00;83.20
4374;DHT22;2201;51.100;6.814;2022-07-29T02:29:26;19.90;83.20
4374;DHT22;2201;51.100;6.814;2022-07-29T02:31:57;19.90;82.80
4374;DHT22;2201;51.100;6.814;2022-07-29T02:34:25;19.90;83.60
4374;DHT22;2201;51.100;6.814;2022-07-29T02:36:54;19.90;83.80
4374;DHT22;2201;51.100;6.814;2022-07-29T02:39:23;19.90;83.80
4374;DHT22;2201;51.100;6.814;2022-07-29T02:41:55;19.90;83.60
4374;DHT22;2201;51.100;6.814;2022-07-29T02:44:25;19.90;83.60
4374;DHT22;2201;51.100;6.814;2022-07-29T02:46:54;19.80;84.00
4374;DHT22;2201;51.100;6.814;2022-07-29T02:49:34;19.80;83.60
4374;DHT22;2201;51.100;6.814;2022-07-29T02:52:03;19.80;83.90
4374;DHT22;2201;51.100;6.814;2022-07-29T02:54:41;19.70;83.60
4374;DHT22;2201;51.100;6.814;2022-07-29T02:57:14;19.70;83.40
4374;DHT22;2201;51.100;6.814;2022-07-29T02:59:43;19.70;83.70
4374;DHT22;2201;51.100;6.814;2022-07-29T03:02:14;19.70;83.50
4374;DHT22;2201;51.100;6.814;2022-07-29T03:04:44;19.70;83.00
4374;DHT22;2201;51.100;6.814;2022-07-29T03:07:14;19.80;83.40
4374;DHT22;2201;51.100;6.814;2022-07-29T03:09:42;19.70;83.80
4374;DHT22;2201;51.100;6.814;2022-07-29T03:12:11;19.70;83.70
4374;DHT22;2201;51.100;6.814;2022-07-29T03:14:39;19.60;83.30
4374;DHT22;2201;51.100;6.814;2022-07-29T03:17:06;19.60;83.50
4374;DHT22;2201;51.100;6.814;2022-07-29T03:19:34;19.50;83.50
4374;DHT22;2201;51.100;6.814;2022-07-29T03:22:02;19.50;83.50
4374;DHT22;2201;51.100;6.814;2022-07-29T03:24:32;19.50;83.50
4374;DHT22;2201;51.100;6.814;2022-07-29T03:27:00;19.50;83.90
4374;DHT22;2201;51.100;6.814;2022-07-29T03:29:27;19.50;84.40
4374;DHT22;2201;51.100;6.814;2022-07-29T03:31:54;19.50;84.60
4374;DHT22;2201;51.100;6.814;2022-07-29T03:34:21;19.50;84.50
4374;DHT22;2201;51.100;6.814;2022-07-29T03:36:48;19.40;85.00
4374;DHT22;2201;51.100;6.814;2022-07-29T03:39:20;19.40;85.50
4374;DHT22;2201;51.100;6.814;2022-07-29T03:41:51;19.30;85.90
4374;DHT22;2201;51.100;6.814;2022-07-29T03:44:20;19.20;86.30
4374;DHT22;2201;51.100;6.814;2022-07-29T03:46:50;19.10;87.10
4374;DHT22;2201;51.100;6.814;2022-07-29T03:49:18;19.00;87.60
4374;DHT22;2201;51.100;6.814;2022-07-29T03:51:46;18.90;87.60
4374;DHT22;2201;51.100;6.814;2022-07-29T03:54:14;18.90;87.80
4374;DHT22;2201;51.100;6.814;2022-07-29T03:56:45;18.80;88.00
4374;DHT22;2201;51.100;6.814;2022-07-29T03:59:15;18.70;88.30
4374;DHT22;2201;51.100;6.814;2022-07-29T04:01:43;18.60;88.60
4374;DHT22;2201;51.100;6.814;2022-07-29T04:04:11;18.50;88.90
4374;DHT22;2201;51.100;6.814;2022-07-29T04:06:40;18.50;89.50
4374;DHT22;2201;51.100;6.814;2022-07-29T04:09:07;18.50;89.30
4374;DHT22;2201;51.100;6.814;2022-07-29T04:11:35;18.40;89.30
4374;DHT22;2201;51.100;6.814;2022-07-29T04:14:04;18.40;89.60
4374;DHT22;2201;51.100;6.814;2022-07-29T04:16:31;18.30;90.20
4374;DHT22;2201;51.100;6.814;2022-07-29T04:18:59;18.30;90.00
4374;DHT22;2201;51.100;6.814;2022-07-29T04:21:26;18.30;90.60
4374;DHT22;2201;51.100;6.814;2022-07-29T04:23:53;18.30;90.40
4374;DHT22;2201;51.100;6.814;2022-07-29T04:26:20;18.40;92.00
4374;DHT22;2201;51.100;6.814;2022-07-29T04:28:47;18.30;93.20
4374;DHT22;2201;51.100;6.814;2022-07-29T04:31:16;18.30;94.40
4374;DHT22;2201;51.100;6.814;2022-07-29T04:33:43;18.10;94.30
4374;DHT22;2201;51.100;6.814;2022-07-29T04:36:10;18.10;94.70
4374;DHT22;2201;51.100;6.814;2022-07-29T04:38:38;18.00;95.10
4374;DHT22;2201;51.100;6.814;2022-07-29T04:41:05;17.80;95.30
4374;DHT22;2201;51.100;6.814;2022-07-29T04:43:34;17.80;95.70
4374;DHT22;2201;51.100;6.814;2022-07-29T04:46:01;17.80;95.80
4374;DHT22;2201;51.100;6.814;2022-07-29T04:48:30;17.70;95.20
4374;DHT22;2201;51.100;6.814;2022-07-29T04:50:57;17.70;95.50
4374;DHT22;2201;51.100;6.814;2022-07-29T04:53:25;17.70;95.20
4374;DHT22;2201;51.100;6.814;2022-07-29T04:55:52;17.80;95.20
4374;DHT22;2201;51.100;6.814;2022-07-29T04:58:19;17.80;95.20
4374;DHT22;2201;51.100;6.814;2022-07-29T05:00:48;17.90;95.70
4374;DHT22;2201;51.100;6.814;2022-07-29T05:03:15;17.90;95.20
4374;DHT22;2201;51.100;6.814;2022-07-29T05:05:44;17.90;95.40
4374;DHT22;2201;51.100;6.814;2022-07-29T05:08:11;17.90;95.50
4374;DHT22;2201;51.100;6.814;2022-07-29T05:10:38;18.00;95.40
4374;DHT22;2201;51.100;6.814;2022-07-29T05:13:06;18.00;95.50
4374;DHT22;2201;51.100;6.814;2022-07-29T05:15:44;18.00;95.30
4374;DHT22;2201;51.100;6.814;2022-07-29T05:18:41;18.00;95.50
4374;DHT22;2201;51.100;6.814;2022-07-29T05:27:31;18.00;94.30
4374;DHT22;2201;51.100;6.814;2022-07-29T05:30:07;18.00;94.20
4374;DHT22;2201;51.100;6.814;2022-07-29T05:32:42;18.00;94.30
4374;DHT22;2201;51.100;6.814;2022-07-29T05:35:10;18.10;93.80
4374;DHT22;2201;51.100;6.814;2022-07-29T05:37:38;18.10;93.80
4374;DHT22;2201;51.100;6.814;2022-07-29T05:40:06;18.10;93.40
4374;DHT22;2201;51.100;6.814;2022-07-29T05:42:34;18.10;92.90
4374;DHT22;2201;51.100;6.814;2022-07-29T05:45:02;18.20;92.80
4374;DHT22;2201;51.100;6.814;2022-07-29T05:47:30;18.20;92.90
4374;DHT22;2201;51.100;6.814;2022-07-29T05:49:57;18.30;93.10
4374;DHT22;2201;51.100;6.814;2022-07-29T05:52:24;18.30;92.90
4374;DHT22;2201;51.100;6.814;2022-07-29T05:54:53;18.30;92.70
4374;DHT22;2201;51.100;6.814;2022-07-29T05:57:22;18.40;92.40
4374;DHT22;2201;51.100;6.814;2022-07-29T05:59:50;18.50;92.40
4374;DHT22;2201;51.100;6.814;2022-07-29T06:02:17;18.60;91.50
4374;DHT22;2201;51.100;6.814;2022-07-29T06:04:44;18.70;91.60
4374;DHT22;2201;51.100;6.814;2022-07-29T06:07:11;18.80;91.30
4374;DHT22;2201;51.100;6.814;2022-07-29T06:09:39;18.90;90.20
4374;DHT22;2201;51.100;6.814;2022-07-29T06:12:07;19.00;89.90
4374;DHT22;2201;51.100;6.814;2022-07-29T06:14:35;19.00;90.00
4374;DHT22;2201;51.100;6.814;2022-07-29T06:17:04;19.10;90.10
4374;DHT22;2201;51.100;6.814;2022-07-29T06:19:33;19.20;89.80
4374;DHT22;2201;51.100;6.814;2022-07-29T06:22:00;19.30;90.40
4374;DHT22;2201;51.100;6.814;2022-07-29T06:24:27;19.40;90.00
4374;DHT22;2201;51.100;6.814;2022-07-29T06:26:55;19.40;88.30
4374;DHT22;2201;51.100;6.814;2022-07-29T06:29:23;19.50;88.80
4374;DHT22;2201;51.100;6.814;2022-07-29T06:31:51;19.50;88.10
4374;DHT22;2201;51.100;6.814;2022-07-29T06:34:20;19.60;87.80
4374;DHT22;2201;51.100;6.814;2022-07-29T06:36:47;19.70;88.30
4374;DHT22;2201;51.100;6.814;2022-07-29T06:39:15;19.70;88.10
4374;DHT22;2201;51.100;6.814;2022-07-29T06:41:46;19.70;88.00
4374;DHT22;2201;51.100;6.814;2022-07-29T06:44:14;19.80;88.00
4374;DHT22;2201;51.100;6.814;2022-07-29T06:46:43;19.80;87.60
4374;DHT22;2201;51.100;6.814;2022-07-29T06:49:10;19.80;87.70
4374;DHT22;2201;51.100;6.814;2022-07-29T06:51:38;19.80;88.50
4374;DHT22;2201;51.100;6.814;2022-07-29T06:54:05;19.80;89.20
4374;DHT22;2201;51.100;6.814;2022-07-29T06:56:34;19.80;90.10
4374;DHT22;2201;51.100;6.814;2022-07-29T06:59:02;19.80;90.20
4374;DHT22;2201;51.100;6.814;2022-07-29T07:01:29;19.80;91.30
4374;DHT22;2201;51.100;6.814;2022-07-29T07:03:58;19.70;93.40
4374;DHT22;2201;51.100;6.814;2022-07-29T07:06:26;19.70;94.60
4374;DHT22;2201;51.100;6.814;2022-07-29T07:08:53;19.60;95.60
4374;DHT22;2201;51.100;6.814;2022-07-29T07:11:20;19.60;96.70
4374;DHT22;2201;51.100;6.814;2022-07-29T07:13:48;19.60;98.20
4374;DHT22;2201;51.100;6.814;2022-07-29T07:16:15;19.50;98.10
4374;DHT22;2201;51.100;6.814;2022-07-29T07:18:42;19.50;98.20
4374;DHT22;2201;51.100;6.814;2022-07-29T07:21:12;19.50;98.20
4374;DHT22;2201;51.100;6.814;2022-07-29T07:23:39;19.50;98.20
4374;DHT22;2201;51.100;6.814;2022-07-29T07:26:07;19.50;98.00
4374;DHT22;2201;51.100;6.814;2022-07-29T07:28:34;19.50;98.20
4374;DHT22;2201;51.100;6.814;2022-07-29T07:31:01;19.40;98.20
4374;DHT22;2201;51.100;6.814;2022-07-29T07:33:29;19.30;98.20
4374;DHT22;2201;51.100;6.814;2022-07-29T07:35:56;19.20;98.20
4374;DHT22;2201;51.100;6.814;2022-07-29T07:38:25;19.10;98.20
4374;DHT22;2201;51.100;6.814;2022-07-29T07:40:52;18.90;98.20
4374;DHT22;2201;51.100;6.814;2022-07-29T07:43:19;18.80;98.20
4374;DHT22;2201;51.100;6.814;2022-07-29T07:45:47;18.80;98.20
4374;DHT22;2201;51.100;6.814;2022-07-29T07:48:14;18.90;98.20
4374;DHT22;2201;51.100;6.814;2022-07-29T07:50:41;18.90;98.20
4374;DHT22;2201;51.100;6.814;2022-07-29T07:53:09;18.90;98.20
4374;DHT22;2201;51.100;6.814;2022-07-29T07:55:42;19.00;98.20
4374;DHT22;2201;51.100;6.814;2022-07-29T07:58:09;19.00;98.20
4374;DHT22;2201;51.100;6.814;2022-07-29T08:00:37;19.00;98.20
4374;DHT22;2201;51.100;6.814;2022-07-29T08:03:05;19.10;98.20
4374;DHT22;2201;51.100;6.814;2022-07-29T08:05:38;19.10;98.20
4374;DHT22;2201;51.100;6.814;2022-07-29T08:08:06;19.10;98.20
4374;DHT22;2201;51.100;6.814;2022-07-29T08:10:33;19.10;98.20
4374;DHT22;2201;51.100;6.814;2022-07-29T08:13:22;19.10;98.20
4374;DHT22;2201;51.100;6.814;2022-07-29T08:15:50;19.00;98.20
4374;DHT22;2201;51.100;6.814;2022-07-29T08:18:30;19.10;98.20
4374;DHT22;2201;51.100;6.814;2022-07-29T08:21:00;19.10;98.20
4374;DHT22;2201;51.100;6.814;2022-07-29T08:23:27;19.20;98.20
4374;DHT22;2201;51.100;6.814;2022-07-29T08:26:04;19.30;98.20
4374;DHT22;2201;51.100;6.814;2022-07-29T08:28:33;19.30;98.20
4374;DHT22;2201;51.100;6.814;2022-07-29T08:31:01;19.40;98.20
4374;DHT22;2201;51.100;6.814;2022-07-29T08:33:28;19.40;98.20
4374;DHT22;2201;51.100;6.814;2022-07-29T08:35:56;19.40;98.20
4374;DHT22;2201;51.100;6.814;2022-07-29T08:38:23;19.50;98.20
4374;DHT22;2201;51.100;6.814;2022-07-29T08:41:04;19.60;98.20
4374;DHT22;2201;51.100;6.814;2022-07-29T08:43:33;19.70;98.20
4374;DHT22;2201;51.100;6.814;2022-07-29T08:46:03;19.70;98.20
4374;DHT22;2201;51.100;6.814;2022-07-29T08:48:31;19.70;98.20
4374;DHT22;2201;51.100;6.814;2022-07-29T08:50:59;19.80;98.20
4374;DHT22;2201;51.100;6.814;2022-07-29T08:53:28;19.80;98.20
4374;DHT22;2201;51.100;6.814;2022-07-29T08:55:57;19.80;98.20
4374;DHT22;2201;51.100;6.814;2022-07-29T08:58:25;19.80;98.20
4374;DHT22;2201;51.100;6.814;2022-07-29T09:04:15;19.80;98.20
4374;DHT22;2201;51.100;6.814;2022-07-29T09:06:45;19.80;98.20
4374;DHT22;2201;51.100;6.814;2022-07-29T09:09:13;19.90;98.20
4374;DHT22;2201;51.100;6.814;2022-07-29T09:11:43;20.00;98.20
4374;DHT22;2201;51.100;6.814;2022-07-29T09:14:12;20.00;98.20
4374;DHT22;2201;51.100;6.814;2022-07-29T09:16:50;20.10;98.20
4374;DHT22;2201;51.100;6.814;2022-07-29T09:19:27;20.10;98.20
4374;DHT22;2201;51.100;6.814;2022-07-29T09:21:58;20.10;98.20
4374;DHT22;2201;51.100;6.814;2022-07-29T09:24:26;20.10;98.20
4374;DHT22;2201;51.100;6.814;2022-07-29T09:26:53;20.10;98.20
4374;DHT22;2201;51.100;6.814;2022-07-29T09:29:23;20.10;98.20
4374;DHT22;2201;51.100;6.814;2022-07-29T09:31:52;20.10;98.20
4374;DHT22;2201;51.100;6.814;2022-07-29T09:34:22;20.20;98.20
4374;DHT22;2201;51.100;6.814;2022-07-29T09:36:54;20.20;98.20
4374;DHT22;2201;51.100;6.814;2022-07-29T09:39:30;20.20;98.20
4374;DHT22;2201;51.100;6.814;2022-07-29T09:41:59;20.30;98.20
4374;DHT22;2201;51.100;6.814;2022-07-29T09:44:26;20.30;98.20
4374;DHT22;2201;51.100;6.814;2022-07-29T09:46:59;20.30;98.20
4374;DHT22;2201;51.100;6.814;2022-07-29T09:49:32;20.40;98.20
4374;DHT22;2201;51.100;6.814;2022-07-29T09:52:04;20.40;98.20
4374;DHT22;2201;51.100;6.814;2022-07-29T09:54:32;20.50;98.20
4374;DHT22;2201;51.100;6.814;2022-07-29T09:57:04;20.60;98.20
4374;DHT22;2201;51.100;6.814;2022-07-29T09:59:32;20.70;98.20
4374;DHT22;2201;51.100;6.814;2022-07-29T10:01:59;20.90;98.20
4374;DHT22;2201;51.100;6.814;2022-07-29T10:04:40;21.00;98.20
4374;DHT22;2201;51.100;6.814;2022-07-29T10:07:09;21.20;98.20
4374;DHT22;2201;51.100;6.814;2022-07-29T10:09:36;21.40;98.20
4374;DHT22;2201;51.100;6.814;2022-07-29T10:12:09;21.50;98.20
4374;DHT22;2201;51.100;6.814;2022-07-29T10:14:37;21.70;98.20
4374;DHT22;2201;51.100;6.814;2022-07-29T10:17:05;21.90;98.10
4374;DHT22;2201;51.100;6.814;2022-07-29T10:19:34;22.00;97.60
4374;DHT22;2201;51.100;6.814;2022-07-29T10:22:05;22.00;96.90
4374;DHT22;2201;51.100;6.814;2022-07-29T10:24:35;22.00;96.50
4374;DHT22;2201;51.100;6.814;2022-07-29T10:27:05;22.10;95.40
4374;DHT22;2201;51.100;6.814;2022-07-29T10:29:32;22.10;94.90
4374;DHT22;2201;51.100;6.814;2022-07-29T10:40:57;22.30;94.90
4374;DHT22;2201;51.100;6.814;2022-07-29T10:43:46;22.10;95.00
4374;DHT22;2201;51.100;6.814;2022-07-29T10:46:15;22.00;94.80
4374;DHT22;2201;51.100;6.814;2022-07-29T10:49:11;22.00;95.50
4374;DHT22;2201;51.100;6.814;2022-07-29T10:52:03;22.20;94.90
4374;DHT22;2201;51.100;6.814;2022-07-29T10:54:47;22.30;94.60
4374;DHT22;2201;51.100;6.814;2022-07-29T10:57:23;22.50;93.50
4374;DHT22;2201;51.100;6.814;2022-07-29T11:02:56;22.90;93.30
4374;DHT22;2201;51.100;6.814;2022-07-29T11:06:09;23.10;92.30
4374;DHT22;2201;51.100;6.814;2022-07-29T11:09:17;23.60;91.10
4374;DHT22;2201;51.100;6.814;2022-07-29T11:11:45;24.10;87.90
4374;DHT22;2201;51.100;6.814;2022-07-29T11:14:14;24.40;87.00
4374;DHT22;2201;51.100;6.814;2022-07-29T11:17:00;24.70;82.90
4374;DHT22;2201;51.100;6.814;2022-07-29T11:19:29;25.00;81.60
4374;DHT22;2201;51.100;6.814;2022-07-29T11:21:57;25.10;81.00
4374;DHT22;2201;51.100;6.814;2022-07-29T11:24:26;25.30;80.70
4374;DHT22;2201;51.100;6.814;2022-07-29T11:27:14;25.20;79.10
4374;DHT22;2201;51.100;6.814;2022-07-29T11:30:00;25.10;80.50
4374;DHT22;2201;51.100;6.814;2022-07-29T11:32:36;25.30;80.80
4374;DHT22;2201;51.100;6.814;2022-07-29T11:35:15;25.60;78.80
4374;DHT22;2201;51.100;6.814;2022-07-29T11:37:43;25.70;77.10
4374;DHT22;2201;51.100;6.814;2022-07-29T11:40:13;25.90;76.60
4374;DHT22;2201;51.100;6.814;2022-07-29T11:42:43;25.90;76.20
4374;DHT22;2201;51.100;6.814;2022-07-29T11:45:14;25.90;75.70
4374;DHT22;2201;51.100;6.814;2022-07-29T11:47:50;25.90;73.70
4374;DHT22;2201;51.100;6.814;2022-07-29T11:50:28;25.80;73.40
4374;DHT22;2201;51.100;6.814;2022-07-29T11:52:56;25.90;75.70
4374;DHT22;2201;51.100;6.814;2022-07-29T11:55:24;26.10;75.00
4374;DHT22;2201;51.100;6.814;2022-07-29T11:57:53;26.40;73.40
4374;DHT22;2201;51.100;6.814;2022-07-29T12:00:30;26.80;73.50
4374;DHT22;2201;51.100;6.814;2022-07-29T12:03:01;27.20;71.90
4374;DHT22;2201;51.100;6.814;2022-07-29T12:05:35;27.50;69.70
4374;DHT22;2201;51.100;6.814;2022-07-29T12:08:08;27.70;70.70
4374;DHT22;2201;51.100;6.814;2022-07-29T12:10:39;27.90;71.10
4374;DHT22;2201;51.100;6.814;2022-07-29T12:13:07;28.10;69.40
4374;DHT22;2201;51.100;6.814;2022-07-29T12:15:36;28.20;67.40
4374;DHT22;2201;51.100;6.814;2022-07-29T12:18:14;28.10;67.60
4374;DHT22;2201;51.100;6.814;2022-07-29T12:20:43;28.10;66.90
4374;DHT22;2201;51.100;6.814;2022-07-29T12:23:11;28.10;66.00
4374;DHT22;2201;51.100;6.814;2022-07-29T12:25:40;28.10;67.20
4374;DHT22;2201;51.100;6.814;2022-07-29T12:28:09;28.10;67.00
4374;DHT22;2201;51.100;6.814;2022-07-29T12:30:43;28.20;67.70
4374;DHT22;2201;51.100;6.814;2022-07-29T12:33:15;28.10;68.40
4374;DHT22;2201;51.100;6.814;2022-07-29T12:35:44;28.20;69.20
4374;DHT22;2201;51.100;6.814;2022-07-29T12:38:12;28.30;70.30
4374;DHT22;2201;51.100;6.814;2022-07-29T12:40:45;28.40;69.60
4374;DHT22;2201;51.100;6.814;2022-07-29T12:43:14;28.70;70.00
4374;DHT22;2201;51.100;6.814;2022-07-29T12:45:46;28.70;68.50
4374;DHT22;2201;51.100;6.814;2022-07-29T12:48:14;28.80;69.50
4374;DHT22;2201;51.100;6.814;2022-07-29T12:50:55;28.80;70.50
4374;DHT22;2201;51.100;6.814;2022-07-29T12:53:24;29.10;69.50
4374;DHT22;2201;51.100;6.814;2022-07-29T12:55:53;29.20;69.80
4374;DHT22;2201;51.100;6.814;2022-07-29T12:58:32;29.20;69.30
4374;DHT22;2201;51.100;6.814;2022-07-29T13:01:06;29.30;69.60
4374;DHT22;2201;51.100;6.814;2022-07-29T13:03:49;29.50;69.00
4374;DHT22;2201;51.100;6.814;2022-07-29T13:06:38;29.60;68.90
4374;DHT22;2201;51.100;6.814;2022-07-29T13:09:08;29.50;67.40
4374;DHT22;2201;51.100;6.814;2022-07-29T13:11:38;29.40;68.90
4374;DHT22;2201;51.100;6.814;2022-07-29T13:14:07;29.40;67.50
4374;DHT22;2201;51.100;6.814;2022-07-29T13:16:59;29.50;66.80
4374;DHT22;2201;51.100;6.814;2022-07-29T13:19:33;29.40;68.50
4374;DHT22;2201;51.100;6.814;2022-07-29T13:22:01;29.60;67.00
4374;DHT22;2201;51.100;6.814;2022-07-29T13:24:28;29.50;66.90
4374;DHT22;2201;51.100;6.814;2022-07-29T13:26:56;29.50;66.30
4374;DHT22;2201;51.100;6.814;2022-07-29T13:29:23;29.60;67.00
4374;DHT22;2201;51.100;6.814;2022-07-29T13:31:53;29.50;66.20
4374;DHT22;2201;51.100;6.814;2022-07-29T13:34:23;29.70;67.60
4374;DHT22;2201;51.100;6.814;2022-07-29T13:36:50;29.90;66.40
4374;DHT22;2201;51.100;6.814;2022-07-29T13:39:17;30.00;66.50
4374;DHT22;2201;51.100;6.814;2022-07-29T13:41:45;30.20;66.30
4374;DHT22;2201;51.100;6.814;2022-07-29T13:44:12;30.30;66.70
4374;DHT22;2201;51.100;6.814;2022-07-29T13:46:39;30.50;64.90
4374;DHT22;2201;51.100;6.814;2022-07-29T13:49:07;30.60;64.80
4374;DHT22;2201;51.100;6.814;2022-07-29T13:51:35;30.60;65.70
4374;DHT22;2201;51.100;6.814;2022-07-29T13:54:02;30.80;64.90
4374;DHT22;2201;51.100;6.814;2022-07-29T13:56:29;30.80;64.00
4374;DHT22;2201;51.100;6.814;2022-07-29T13:58:56;30.80;64.50
4374;DHT22;2201;51.100;6.814;2022-07-29T14:01:24;30.60;64.70
4374;DHT22;2201;51.100;6.814;2022-07-29T14:03:52;30.50;64.90
4374;DHT22;2201;51.100;6.814;2022-07-29T14:06:21;30.40;64.10
4374;DHT22;2201;51.100;6.814;2022-07-29T14:08:49;30.30;65.90
4374;DHT22;2201;51.100;6.814;2022-07-29T14:11:16;30.30;65.40
4374;DHT22;2201;51.100;6.814;2022-07-29T14:13:43;30.40;65.10
4374;DHT22;2201;51.100;6.814;2022-07-29T14:16:10;30.30;63.90
4374;DHT22;2201;51.100;6.814;2022-07-29T14:18:37;30.30;65.30
4374;DHT22;2201;51.100;6.814;2022-07-29T14:21:05;30.20;64.00
4374;DHT22;2201;51.100;6.814;2022-07-29T14:23:33;30.20;64.40
4374;DHT22;2201;51.100;6.814;2022-07-29T14:26:00;30.10;64.90
4374;DHT22;2201;51.100;6.814;2022-07-29T14:28:27;30.20;64.70
4374;DHT22;2201;51.100;6.814;2022-07-29T14:30:55;30.20;64.30
4374;DHT22;2201;51.100;6.814;2022-07-29T14:33:22;30.20;65.00
4374;DHT22;2201;51.100;6.814;2022-07-29T14:35:49;30.20;64.90
4374;DHT22;2201;51.100;6.814;2022-07-29T14:38:16;30.20;64.50
4374;DHT22;2201;51.100;6.814;2022-07-29T14:40:45;30.40;65.70
4374;DHT22;2201;51.100;6.814;2022-07-29T14:43:13;30.40;64.40
4374;DHT22;2201;51.100;6.814;2022-07-29T14:45:41;30.30;64.50
4374;DHT22;2201;51.100;6.814;2022-07-29T14:48:08;30.40;65.70
4374;DHT22;2201;51.100;6.814;2022-07-29T14:50:37;30.40;64.80
4374;DHT22;2201;51.100;6.814;2022-07-29T14:53:04;30.30;63.20
4374;DHT22;2201;51.100;6.814;2022-07-29T14:55:31;30.00;64.00
4374;DHT22;2201;51.100;6.814;2022-07-29T14:57:59;29.70;65.00
4374;DHT22;2201;51.100;6.814;2022-07-29T15:00:27;29.60;64.40
4374;DHT22;2201;51.100;6.814;2022-07-29T15:02:57;29.40;64.20
4374;DHT22;2201;51.100;6.814;2022-07-29T15:05:25;29.20;65.20
4374;DHT22;2201;51.100;6.814;2022-07-29T15:07:52;29.20;65.60
4374;DHT22;2201;51.100;6.814;2022-07-29T15:10:50;29.30;65.20
4374;DHT22;2201;51.100;6.814;2022-07-29T15:13:24;29.30;65.60
4374;DHT22;2201;51.100;6.814;2022-07-29T15:15:56;29.50;64.30
4374;DHT22;2201;51.100;6.814;2022-07-29T15:18:23;29.60;64.80
4374;DHT22;2201;51.100;6.814;2022-07-29T15:20:54;29.80;63.70
4374;DHT22;2201;51.100;6.814;2022-07-29T15:23:21;29.70;62.40
4374;DHT22;2201;51.100;6.814;2022-07-29T15:29:20;29.10;63.60
4374;DHT22;2201;51.100;6.814;2022-07-29T15:31:47;28.80;62.80
4374;DHT22;2201;51.100;6.814;2022-07-29T15:34:15;28.80;63.70
4374;DHT22;2201;51.100;6.814;2022-07-29T15:36:45;29.00;63.60
4374;DHT22;2201;51.100;6.814;2022-07-29T15:39:26;28.80;62.30
4374;DHT22;2201;51.100;6.814;2022-07-29T15:41:55;28.60;62.50
4374;DHT22;2201;51.100;6.814;2022-07-29T15:44:24;28.50;62.40
4374;DHT22;2201;51.100;6.814;2022-07-29T15:46:53;28.50;63.40
4374;DHT22;2201;51.100;6.814;2022-07-29T15:52:32;28.10;64.70
4374;DHT22;2201;51.100;6.814;2022-07-29T15:54:59;28.00;64.30
4374;DHT22;2201;51.100;6.814;2022-07-29T15:57:27;27.90;63.70
4374;DHT22;2201;51.100;6.814;2022-07-29T15:59:56;27.80;63.30
4374;DHT22;2201;51.100;6.814;2022-07-29T16:02:23;27.80;64.90
4374;DHT22;2201;51.100;6.814;2022-07-29T16:04:50;27.70;64.30
4374;DHT22;2201;51.100;6.814;2022-07-29T16:07:18;27.60;64.10
4374;DHT22;2201;51.100;6.814;2022-07-29T16:09:45;27.50;65.10
4374;DHT22;2201;51.100;6.814;2022-07-29T16:12:12;27.40;64.20
4374;DHT22;2201;51.100;6.814;2022-07-29T16:14:39;27.30;65.10
4374;DHT22;2201;51.100;6.814;2022-07-29T16:17:08;27.20;66.10
4374;DHT22;2201;51.100;6.814;2022-07-29T16:19:35;27.30;66.90
4374;DHT22;2201;51.100;6.814;2022-07-29T16:22:02;27.30;65.60
4374;DHT22;2201;51.100;6.814;2022-07-29T16:24:29;27.30;65.40
4374;DHT22;2201;51.100;6.814;2022-07-29T16:26:57;27.30;66.70
4374;DHT22;2201;51.100;6.814;2022-07-29T16:29:33;27.30;65.40
4374;DHT22;2201;51.100;6.814;2022-07-29T16:32:03;27.30;66.00
4374;DHT22;2201;51.100;6.814;2022-07-29T16:34:35;27.20;65.60
4374;DHT22;2201;51.100;6.814;2022-07-29T16:37:03;27.20;66.50
4374;DHT22;2201;51.100;6.814;2022-07-29T16:39:30;27.20;66.70
4374;DHT22;2201;51.100;6.814;2022-07-29T16:41:59;27.20;67.20
4374;DHT22;2201;51.100;6.814;2022-07-29T16:44:27;27.40;67.20
4374;DHT22;2201;51.100;6.814;2022-07-29T16:46:54;27.60;67.10
4374;DHT22;2201;51.100;6.814;2022-07-29T16:49:21;27.70;66.50